Time;durP1;ratioP1;P1;durP2;ratioP2;P2;SDS_P1;SDS_P2;PMS_P1;PMS_P2;Temp;Humidity;BMP_temperature;BMP_pressure;BME280_temperature;BME280_humidity;BME280_pressure;Samples;Min_cycle;Max_cycle;Signal;HPM_P1;HPM_P2
2024/02/03 00:00:41;;;;;;;10.20;5.35;;;15.60;80.70;;;;;;4154490;28;20052;-42
2024/02/03 00:03:22;;;;;;;7.15;4.53;;;15.60;80.80;;;;;;4155071;28;20203;-42
2024/02/03 00:06:04;;;;;;;10.07;4.63;;;15.60;80.80;;;;;;4154626;28;20166;-42
2024/02/03 00:08:45;;;;;;;9.00;4.65;;;15.50;81.00;;;;;;4146832;28;20219;-42
2024/02/03 00:11:27;;;;;;;10.95;4.68;;;15.50;81.00;;;;;;4153781;28;20052;-42
2024/02/03 00:14:09;;;;;;;8.55;4.13;;;15.50;81.00;;;;;;4152289;28;20060;-54
2024/02/03 00:16:50;;;;;;;7.65;3.90;;;15.50;81.10;;;;;;4153544;28;20060;-54
2024/02/03 00:19:31;;;;;;;9.75;4.07;;;15.50;82.10;;;;;;4140299;28;20056;-52
2024/02/03 00:22:13;;;;;;;6.30;3.92;;;15.50;81.20;;;;;;4151355;28;20260;-52
2024/02/03 00:24:53;;;;;;;7.45;3.78;;;15.50;81.30;;;;;;4140329;28;20229;-50
2024/02/03 00:27:36;;;;;;;6.60;3.72;;;15.50;81.30;;;;;;4150262;28;20075;-54
2024/02/03 00:30:17;;;;;;;8.93;4.25;;;15.50;81.50;;;;;;4154088;28;20431;-53
2024/02/03 00:32:58;;;;;;;;;;;15.50;81.50;;;;;;4154072;28;20057;-55
2024/02/03 00:35:39;;;;;;;5.57;3.28;;;15.40;81.60;;;;;;4154022;28;19943;-51
2024/02/03 00:38:20;;;;;;;9.90;4.15;;;15.40;82.00;;;;;;4154025;28;20449;-54
2024/02/03 00:41:01;;;;;;;10.88;4.32;;;15.40;81.90;;;;;;4150402;28;20068;-54
2024/02/03 00:43:44;;;;;;;9.77;3.97;;;15.40;81.80;;;;;;4137589;28;20057;-52
2024/02/03 00:46:24;;;;;;;9.68;3.50;;;15.40;81.80;;;;;;4138104;28;20157;-52
2024/02/03 00:49:06;;;;;;;5.28;3.63;;;15.40;82.00;;;;;;4150668;28;20056;-51
2024/02/03 00:51:47;;;;;;;8.15;4.30;;;15.40;81.90;;;;;;4154419;28;20049;-51
2024/02/03 00:54:28;;;;;;;9.07;4.05;;;15.40;82.00;;;;;;4154669;28;20051;-51
2024/02/03 00:57:09;;;;;;;6.15;3.42;;;15.40;82.00;;;;;;4143740;28;20072;-51
2024/02/03 00:59:52;;;;;;;9.38;3.67;;;15.40;82.10;;;;;;4153578;28;20057;-53
2024/02/03 01:02:33;;;;;;;6.65;3.38;;;15.40;82.30;;;;;;4140737;28;20115;-49
2024/02/03 01:05:14;;;;;;;9.70;3.47;;;15.40;82.20;;;;;;4154097;28;20401;-52
2024/02/03 01:07:55;;;;;;;12.00;4.13;;;15.30;82.30;;;;;;4153724;28;20402;-49
2024/02/03 01:10:36;;;;;;;5.70;3.38;;;15.30;82.20;;;;;;4153830;28;20199;-49
2024/02/03 01:13:17;;;;;;;7.38;3.13;;;15.30;82.30;;;;;;4156449;28;20131;-49
2024/02/03 01:16:00;;;;;;;9.00;3.50;;;15.40;82.70;;;;;;4156804;28;20525;-49
2024/02/03 01:18:41;;;;;;;5.90;3.00;;;15.40;82.60;;;;;;4157484;28;20060;-51
2024/02/03 01:21:23;;;;;;;7.80;3.03;;;15.50;82.40;;;;;;4157382;28;20080;-52
2024/02/03 01:24:04;;;;;;;4.78;3.00;;;15.50;82.00;;;;;;4154523;28;20386;-52
2024/02/03 01:26:45;;;;;;;5.10;2.58;;;15.60;81.90;;;;;;4156780;28;20052;-52
2024/02/03 01:29:26;;;;;;;8.70;2.80;;;15.60;81.80;;;;;;4156856;28;20048;-50
2024/02/03 01:32:10;;;;;;;7.75;2.47;;;15.60;81.70;;;;;;4128511;28;20077;-53
2024/02/03 01:34:51;;;;;;;10.95;3.00;;;15.60;81.70;;;;;;4141042;28;20073;-50
2024/02/03 01:37:33;;;;;;;7.05;2.42;;;15.60;81.40;;;;;;4140588;28;20057;-52
2024/02/03 01:40:14;;;;;;;10.10;3.75;;;15.60;81.50;;;;;;4141163;28;20131;-53
2024/02/03 01:42:59;;;;;;;6.30;2.63;;;15.60;81.70;;;;;;4140659;28;20083;-53
2024/02/03 01:45:40;;;;;;;7.65;2.80;;;15.60;81.80;;;;;;4155531;28;20052;-51
2024/02/03 01:48:23;;;;;;;5.13;2.20;;;15.60;81.90;;;;;;4146727;28;20053;-49
2024/02/03 01:51:07;;;;;;;5.90;2.38;;;15.70;81.70;;;;;;4156124;28;20048;-49
2024/02/03 01:53:48;;;;;;;3.22;2.38;;;15.80;81.50;;;;;;4156985;28;20127;-50
2024/02/03 01:56:33;;;;;;;3.75;1.83;;;15.80;81.30;;;;;;4156621;28;20068;-50
2024/02/03 01:59:15;;;;;;;5.95;2.38;;;15.80;81.20;;;;;;4151443;28;20473;-50
2024/02/03 02:01:57;;;;;;;6.00;2.35;;;15.90;81.10;;;;;;4153086;28;20071;-53
2024/02/03 02:04:39;;;;;;;2.20;1.80;;;16.00;80.80;;;;;;4140159;28;20052;-52
2024/02/03 02:07:21;;;;;;;5.70;2.25;;;16.10;80.20;;;;;;4155063;28;20075;-54
2024/02/03 02:10:02;;;;;;;3.42;2.28;;;16.20;79.90;;;;;;4156747;28;20107;-49
2024/02/03 02:12:43;;;;;;;5.47;2.17;;;16.20;79.60;;;;;;4156311;28;20405;-50
2024/02/03 02:15:25;;;;;;;9.10;2.58;;;16.30;79.50;;;;;;4137002;28;20049;-51
2024/02/03 02:18:06;;;;;;;;;;;16.30;79.40;;;;;;4132611;28;20064;-50
2024/02/03 02:20:48;;;;;;;2.47;1.85;;;16.30;79.40;;;;;;4140248;28;19932;-42
2024/02/03 02:23:30;;;;;;;6.90;2.10;;;16.30;79.40;;;;;;4132832;28;20131;-42
2024/02/03 02:26:11;;;;;;;6.78;2.60;;;16.30;79.30;;;;;;4145307;28;20052;-42
2024/02/03 02:28:52;;;;;;;4.32;2.08;;;16.30;79.40;;;;;;4156109;28;20156;-42
2024/02/03 02:31:33;;;;;;;10.10;2.63;;;16.30;79.40;;;;;;4154506;28;20084;-42
2024/02/03 02:34:14;;;;;;;3.60;1.88;;;16.30;79.50;;;;;;4151785;28;20053;-42
2024/02/03 02:36:56;;;;;;;3.47;2.60;;;16.30;79.40;;;;;;4154521;28;20056;-42
2024/02/03 02:39:37;;;;;;;5.88;2.40;;;16.40;79.30;;;;;;4153493;28;20505;-42
2024/02/03 02:42:18;;;;;;;4.20;2.20;;;16.40;79.20;;;;;;4156125;28;20386;-43
2024/02/03 02:44:59;;;;;;;4.10;2.22;;;16.40;79.20;;;;;;4140021;28;20084;-42
2024/02/03 02:47:40;;;;;;;3.15;1.83;;;16.40;79.00;;;;;;4156236;28;20053;-42
2024/02/03 02:50:21;;;;;;;6.43;2.08;;;16.40;78.90;;;;;;4156010;28;20060;-42
2024/02/03 02:53:04;;;;;;;3.67;2.05;;;16.40;78.90;;;;;;4153241;28;20068;-42
2024/02/03 02:55:45;;;;;;;4.32;2.00;;;16.40;78.90;;;;;;4155404;28;20095;-42
2024/02/03 02:58:26;;;;;;;7.72;2.58;;;16.40;79.10;;;;;;4154463;28;20060;-42
2024/02/03 03:01:07;;;;;;;3.95;2.28;;;16.40;78.90;;;;;;4156156;28;20064;-42
2024/02/03 03:03:48;;;;;;;3.65;2.05;;;16.50;78.70;;;;;;4155767;28;20060;-42
2024/02/03 03:06:29;;;;;;;8.05;2.40;;;16.50;78.70;;;;;;4155913;28;20806;-42
2024/02/03 03:09:12;;;;;;;4.40;1.73;;;16.50;78.70;;;;;;4154221;28;20165;-42
2024/02/03 03:11:53;;;;;;;5.30;2.10;;;16.50;78.60;;;;;;4155638;28;20052;-42
2024/02/03 03:14:34;;;;;;;7.25;2.30;;;16.50;78.60;;;;;;4155286;28;20052;-42
2024/02/03 03:17:15;;;;;;;3.55;2.20;;;16.50;78.50;;;;;;4155479;28;20889;-42
2024/02/03 03:19:56;;;;;;;3.10;2.20;;;16.50;78.50;;;;;;4155423;28;20060;-42
2024/02/03 03:22:37;;;;;;;8.10;2.60;;;16.60;78.60;;;;;;4155183;28;20048;-42
2024/02/03 03:25:20;;;;;;;5.45;2.28;;;16.50;78.40;;;;;;4177131;28;20067;-42
2024/02/03 03:28:01;;;;;;;4.60;1.70;;;16.50;78.40;;;;;;4138660;28;20049;-42
2024/02/03 03:30:42;;;;;;;4.93;2.25;;;16.50;78.40;;;;;;4144996;28;20489;-42
2024/02/03 03:33:23;;;;;;;5.45;2.28;;;16.50;78.50;;;;;;4154954;28;20504;-42
2024/02/03 03:36:05;;;;;;;4.22;2.05;;;16.50;78.60;;;;;;4154584;28;20045;-42
2024/02/03 03:38:46;;;;;;;4.60;1.75;;;16.60;78.50;;;;;;4153252;28;20068;-42
2024/02/03 03:41:28;;;;;;;4.18;2.47;;;16.60;78.40;;;;;;4154182;28;20520;-42
2024/02/03 03:44:09;;;;;;;5.50;2.35;;;16.60;78.20;;;;;;4155467;28;20063;-42
2024/02/03 03:46:50;;;;;;;5.47;2.35;;;16.60;78.20;;;;;;4154619;28;20052;-41
2024/02/03 03:49:32;;;;;;;5.25;2.63;;;16.60;78.20;;;;;;4146089;28;20398;-51
2024/02/03 03:52:14;;;;;;;4.88;2.50;;;16.60;78.30;;;;;;4153698;28;20077;-47
2024/02/03 03:54:55;;;;;;;;;;;16.60;78.30;;;;;;4155169;28;20081;-45
2024/02/03 03:57:37;;;;;;;4.88;1.83;;;16.60;78.20;;;;;;4154506;28;19985;-48
2024/02/03 04:00:18;;;;;;;9.13;2.75;;;16.60;78.10;;;;;;4137496;28;20529;-46
2024/02/03 04:03:00;;;;;;;5.05;2.63;;;16.60;78.10;;;;;;4123505;28;20120;-49
2024/02/03 04:05:41;;;;;;;10.02;2.20;;;16.60;78.00;;;;;;4138714;28;20097;-44
2024/02/03 04:08:22;;;;;;;4.72;1.90;;;16.60;78.10;;;;;;4153482;28;20052;-47
2024/02/03 04:11:03;;;;;;;8.00;1.95;;;16.60;78.10;;;;;;4154419;28;20065;-45
2024/02/03 04:13:48;;;;;;;6.47;2.50;;;16.70;78.10;;;;;;4154752;28;20072;-45
2024/02/03 04:16:29;;;;;;;5.05;2.67;;;16.60;77.80;;;;;;4152244;28;20113;-47
2024/02/03 04:19:10;;;;;;;3.83;1.45;;;16.60;77.90;;;;;;4154249;28;20164;-46
2024/02/03 04:21:51;;;;;;;7.35;2.47;;;16.60;78.70;;;;;;4154286;28;20401;-45
2024/02/03 04:24:32;;;;;;;4.80;2.30;;;16.60;77.70;;;;;;4153278;28;20127;-47
2024/02/03 04:27:13;;;;;;;2.60;1.80;;;16.70;77.70;;;;;;4135444;28;20123;-46
2024/02/03 04:29:56;;;;;;;5.85;1.75;;;16.70;77.70;;;;;;4151908;28;20056;-46
2024/02/03 04:32:37;;;;;;;5.30;2.08;;;16.60;77.50;;;;;;4153665;28;20534;-46
2024/02/03 04:35:18;;;;;;;7.00;1.85;;;16.60;77.70;;;;;;4153998;28;20096;-44
2024/02/03 04:38:02;;;;;;;6.35;2.05;;;16.60;77.80;;;;;;4140099;28;20051;-46
2024/02/03 04:40:43;;;;;;;4.72;2.10;;;16.50;78.20;;;;;;4153360;28;20056;-44
2024/02/03 04:43:24;;;;;;;4.43;2.30;;;16.50;78.20;;;;;;4137810;28;20517;-39
2024/02/03 04:46:06;;;;;;;4.68;2.58;;;16.60;78.10;;;;;;4153396;28;20049;-39
2024/02/03 04:48:47;;;;;;;4.72;1.85;;;16.60;78.20;;;;;;4157061;28;20060;-40
2024/02/03 04:51:29;;;;;;;5.30;2.55;;;16.60;77.70;;;;;;4157548;28;20045;-39
2024/02/03 04:54:12;;;;;;;4.25;2.08;;;16.60;77.80;;;;;;4157569;28;20092;-40
2024/02/03 04:56:53;;;;;;;4.40;2.28;;;16.60;77.70;;;;;;4150075;28;20047;-39
2024/02/03 04:59:34;;;;;;;4.15;1.75;;;16.70;77.60;;;;;;4139464;28;20219;-39
2024/02/03 05:02:16;;;;;;;7.50;2.33;;;16.70;77.40;;;;;;4141287;28;20787;-39
2024/02/03 05:04:56;;;;;;;6.53;1.80;;;16.70;77.30;;;;;;4148130;28;20098;-39
2024/02/03 05:07:38;;;;;;;7.15;2.17;;;16.60;77.30;;;;;;4156026;28;20635;-40
2024/02/03 05:10:19;;;;;;;4.55;1.92;;;16.60;77.60;;;;;;4157272;28;20053;-39
2024/02/03 05:13:00;;;;;;;4.80;2.45;;;16.70;77.60;;;;;;4156476;28;20048;-39
2024/02/03 05:15:41;;;;;;;6.30;1.92;;;16.70;78.30;;;;;;4146267;28;20056;-39
2024/02/03 05:18:23;;;;;;;5.05;1.98;;;16.70;77.30;;;;;;4140808;28;20049;-40
2024/02/03 05:21:05;;;;;;;2.20;1.90;;;16.80;77.20;;;;;;4140364;28;20064;-39
2024/02/03 05:23:46;;;;;;;6.28;2.05;;;16.70;77.20;;;;;;4140500;28;20065;-39
2024/02/03 05:26:27;;;;;;;4.50;1.73;;;16.70;77.20;;;;;;4145247;28;20052;-40
2024/02/03 05:29:08;;;;;;;7.63;2.10;;;16.60;77.30;;;;;;4155714;28;20068;-45
2024/02/03 05:31:49;;;;;;;8.30;2.15;;;16.60;77.50;;;;;;4156305;28;20187;-40
2024/02/03 05:34:31;;;;;;;5.15;1.85;;;16.50;77.60;;;;;;4156902;28;20516;-39
2024/02/03 05:37:12;;;;;;;6.68;2.20;;;16.50;77.90;;;;;;4156092;28;20513;-39
2024/02/03 05:39:53;;;;;;;5.10;2.15;;;16.50;78.40;;;;;;4154207;28;20410;-39
2024/02/03 05:42:34;;;;;;;4.47;1.90;;;16.50;78.40;;;;;;4156507;28;20052;-39
2024/02/03 05:45:17;;;;;;;5.30;2.50;;;16.50;78.20;;;;;;4156334;28;20060;-40
2024/02/03 05:47:57;;;;;;;5.68;2.08;;;16.60;78.00;;;;;;4140176;28;20056;-39
2024/02/03 05:50:40;;;;;;;6.22;2.58;;;16.60;77.90;;;;;;4130994;28;20049;-40
2024/02/03 05:53:20;;;;;;;8.70;2.42;;;16.70;77.80;;;;;;4134915;28;20181;-39
2024/02/03 05:56:02;;;;;;;6.22;2.45;;;16.70;77.40;;;;;;4142888;28;20110;-39
2024/02/03 05:58:44;;;;;;;4.88;2.15;;;16.70;77.20;;;;;;4152944;28;20601;-39
2024/02/03 06:01:24;;;;;;;5.70;2.53;;;16.70;77.30;;;;;;4156418;28;20060;-39
2024/02/03 06:04:07;;;;;;;4.97;2.05;;;16.70;77.30;;;;;;4156355;28;20061;-40
2024/02/03 06:06:50;;;;;;;4.50;2.78;;;16.70;77.30;;;;;;4156410;28;20064;-39
2024/02/03 06:09:31;;;;;;;8.55;3.53;;;16.70;77.10;;;;;;4155309;28;20409;-39
2024/02/03 06:12:11;;;;;;;4.27;2.63;;;16.80;77.20;;;;;;4153440;28;20060;-47
2024/02/03 06:14:52;;;;;;;6.60;2.93;;;16.70;77.30;;;;;;4154540;28;20378;-48
2024/02/03 06:17:33;;;;;;;7.10;2.53;;;16.70;77.40;;;;;;4154007;28;20525;-49
2024/02/03 06:20:14;;;;;;;3.92;2.67;;;16.70;77.70;;;;;;4153729;28;20125;-45
2024/02/03 06:22:57;;;;;;;4.00;2.17;;;16.60;77.70;;;;;;4154449;28;20107;-48
2024/02/03 06:25:38;;;;;;;4.32;2.20;;;16.70;77.60;;;;;;4155126;28;20184;-45
2024/02/03 06:28:21;;;;;;;10.27;3.22;;;16.70;77.40;;;;;;4152784;28;20106;-47
2024/02/03 06:31:02;;;;;;;6.85;2.60;;;16.70;77.20;;;;;;4153722;28;20406;-45
2024/02/03 06:33:43;;;;;;;5.68;2.70;;;16.70;77.40;;;;;;4154075;28;20509;-45
2024/02/03 06:36:24;;;;;;;6.45;2.42;;;16.70;77.40;;;;;;4154759;28;20064;-46
2024/02/03 06:39:08;;;;;;;4.50;2.10;;;16.60;77.40;;;;;;4155945;28;20561;-47
2024/02/03 06:41:49;;;;;;;5.03;2.78;;;16.60;77.60;;;;;;4154209;28;20521;-44
2024/02/03 06:44:30;;;;;;;7.65;2.40;;;16.50;77.80;;;;;;4154138;28;20488;-45
2024/02/03 06:47:11;;;;;;;5.38;2.13;;;16.50;78.10;;;;;;4139214;28;20065;-44
2024/02/03 06:49:52;;;;;;;6.65;2.22;;;16.60;77.90;;;;;;4155020;28;20110;-42
2024/02/03 06:52:33;;;;;;;6.72;2.20;;;16.60;77.70;;;;;;4154747;28;20406;-44
2024/02/03 06:55:16;;;;;;;8.55;2.22;;;16.70;78.00;;;;;;4155066;28;20064;-46
2024/02/03 06:57:57;;;;;;;4.85;1.85;;;16.70;78.00;;;;;;4155763;28;20076;-46
2024/02/03 07:00:38;;;;;;;7.45;2.50;;;16.70;77.80;;;;;;4155820;28;20175;-44
2024/02/03 07:03:19;;;;;;;4.47;2.00;;;16.70;77.70;;;;;;4133176;28;20053;-46
2024/02/03 07:06:00;;;;;;;5.95;1.73;;;16.70;77.70;;;;;;4152480;28;20056;-43
2024/02/03 07:08:41;;;;;;;4.60;2.10;;;16.70;77.80;;;;;;4154827;28;20048;-46
2024/02/03 07:11:24;;;;;;;2.90;1.73;;;16.70;77.80;;;;;;4154224;28;20052;-45
2024/02/03 07:14:05;;;;;;;5.15;2.30;;;16.70;77.70;;;;;;4155288;28;20057;-39
2024/02/03 07:16:46;;;;;;;7.40;2.20;;;16.70;77.80;;;;;;4154769;28;20052;-40
2024/02/03 07:19:28;;;;;;;4.03;2.13;;;16.70;78.00;;;;;;4177030;28;20065;-39
2024/02/03 07:22:09;;;;;;;6.10;2.30;;;16.70;77.90;;;;;;4154381;28;20119;-39
2024/02/03 07:24:50;;;;;;;7.22;2.53;;;16.70;77.80;;;;;;4153413;28;20513;-39
2024/02/03 07:27:33;;;;;;;3.78;1.85;;;16.70;77.60;;;;;;4155255;28;20512;-40
2024/02/03 07:30:14;;;;;;;4.45;1.88;;;16.70;77.40;;;;;;4153098;28;20064;-40
2024/02/03 07:32:55;;;;;;;;;;;16.70;77.40;;;;;;4155325;28;20080;-39
2024/02/03 07:35:36;;;;;;;3.45;2.00;;;16.70;77.40;;;;;;4154860;28;20277;-40
2024/02/03 07:38:16;;;;;;;4.25;2.08;;;16.70;77.40;;;;;;4153367;28;20513;-39
2024/02/03 07:40:58;;;;;;;5.45;2.50;;;16.60;77.50;;;;;;4154431;28;20056;-39
2024/02/03 07:43:40;;;;;;;4.45;2.28;;;16.60;77.70;;;;;;4153506;28;20711;-40
2024/02/03 07:46:21;;;;;;;5.00;2.38;;;16.60;78.00;;;;;;4148693;28;20064;-43
2024/02/03 07:49:02;;;;;;;1.08;0.70;;;16.60;78.00;;;;;;4138221;28;20453;-40
2024/02/03 07:51:43;;;;;;;6.90;2.90;;;16.60;78.10;;;;;;4154370;28;20045;-41
2024/02/03 07:54:24;;;;;;;4.00;2.10;;;16.60;77.20;;;;;;4154264;28;20510;-41
2024/02/03 07:57:05;;;;;;;4.35;1.83;;;16.60;76.40;;;;;;4128750;28;20056;-40
2024/02/03 07:59:48;;;;;;;4.75;2.30;;;16.70;76.10;;;;;;4138109;28;20107;-40
2024/02/03 08:02:29;;;;;;;4.32;2.17;;;16.70;75.80;;;;;;4149096;28;20060;-49
2024/02/03 08:05:10;;;;;;;6.88;2.33;;;16.70;75.30;;;;;;4149977;28;20063;-49
2024/02/03 08:07:52;;;;;;;6.72;2.47;;;16.80;74.90;;;;;;4150015;28;20115;-45
2024/02/03 08:10:33;;;;;;;4.80;2.08;;;16.80;74.60;;;;;;4151831;28;20545;-47
2024/02/03 08:13:13;;;;;;;7.65;3.08;;;16.80;74.60;;;;;;4153540;28;20555;-48
2024/02/03 08:15:56;;;;;;;5.88;2.05;;;16.80;74.40;;;;;;4137531;28;20060;-46
2024/02/03 08:18:37;;;;;;;4.93;1.67;;;16.70;74.40;;;;;;4134838;28;20072;-45
2024/02/03 08:21:18;;;;;;;6.20;1.98;;;16.70;74.40;;;;;;4137904;28;20439;-47
2024/02/03 08:24:01;;;;;;;5.47;2.03;;;16.60;74.50;;;;;;4137839;28;20049;-45
2024/02/03 08:26:42;;;;;;;5.35;1.98;;;16.60;74.60;;;;;;4140299;28;20048;-45
2024/02/03 08:29:24;;;;;;;6.15;2.42;;;16.50;74.70;;;;;;4150862;28;20398;-47
2024/02/03 08:32:07;;;;;;;4.63;2.05;;;16.40;74.80;;;;;;4152551;28;20052;-47
2024/02/03 08:34:48;;;;;;;6.25;1.90;;;16.40;75.30;;;;;;4153161;28;20414;-49
2024/02/03 08:37:32;;;;;;;9.10;1.70;;;16.40;75.70;;;;;;4154881;28;20187;-49
2024/02/03 08:40:18;;;;;;;4.80;1.25;;;16.40;75.70;;;;;;4153896;28;20100;-49
2024/02/03 08:42:59;;;;;;;5.85;2.28;;;16.40;75.50;;;;;;4154126;28;20052;-49
2024/02/03 08:45:40;;;;;;;2.53;1.48;;;16.40;75.30;;;;;;4151511;28;20060;-49
2024/02/03 08:48:22;;;;;;;8.85;1.80;;;16.40;75.30;;;;;;4153073;28;20052;-51
2024/02/03 08:51:04;;;;;;;3.85;1.40;;;16.40;75.30;;;;;;4154043;28;20060;-48
2024/02/03 08:53:45;;;;;;;4.80;2.05;;;16.30;75.20;;;;;;4153855;28;20080;-49
2024/02/03 08:56:26;;;;;;;6.15;2.13;;;16.40;75.40;;;;;;4136498;28;20049;-49
2024/02/03 08:59:07;;;;;;;9.27;4.03;;;16.40;75.30;;;;;;4139540;28;20068;-49
2024/02/03 09:01:48;;;;;;;3.47;1.50;;;16.40;74.80;;;;;;4151036;28;20057;-49
2024/02/03 09:04:31;;;;;;;4.20;1.67;;;16.50;74.30;;;;;;4153411;28;20077;-49
2024/02/03 09:07:13;;;;;;;8.52;1.77;;;16.60;74.00;;;;;;4137553;28;20060;-49
2024/02/03 09:09:53;;;;;;;5.18;1.55;;;16.60;73.90;;;;;;4144151;28;20048;-50
2024/02/03 09:12:34;;;;;;;3.58;1.15;;;16.60;73.70;;;;;;4150761;28;20060;-50
2024/02/03 09:15:15;;;;;;;2.88;1.50;;;16.60;73.80;;;;;;4152064;28;20060;-50
2024/02/03 09:17:57;;;;;;;3.67;1.25;;;16.50;74.00;;;;;;4154270;28;20053;-49
2024/02/03 09:20:39;;;;;;;5.57;1.63;;;16.50;74.10;;;;;;4152740;28;20068;-49
2024/02/03 09:23:20;;;;;;;4.45;1.67;;;16.50;74.30;;;;;;4153790;28;20516;-49
2024/02/03 09:26:02;;;;;;;5.45;1.95;;;16.50;74.30;;;;;;4153745;28;20498;-52
2024/02/03 09:28:42;;;;;;;7.53;2.33;;;16.50;74.10;;;;;;4154108;28;20106;-51
2024/02/03 09:31:23;;;;;;;4.35;2.05;;;16.50;73.90;;;;;;4153862;28;20102;-50
2024/02/03 09:34:07;;;;;;;7.45;2.03;;;16.50;73.90;;;;;;4154079;28;20052;-50
2024/02/03 09:36:49;;;;;;;5.35;1.50;;;16.60;74.20;;;;;;4153589;28;20080;-49
2024/02/03 09:39:33;;;;;;;11.18;2.22;;;16.90;73.30;;;;;;4155520;28;20056;-51
2024/02/03 09:42:15;;;;;;;7.75;2.20;;;17.40;71.70;;;;;;4154209;28;20417;-51
2024/02/03 09:44:56;;;;;;;8.98;2.10;;;17.90;69.90;;;;;;4155719;28;20079;-48
2024/02/03 09:47:37;;;;;;;3.25;1.30;;;18.40;67.80;;;;;;4156653;28;20064;-48
2024/02/03 09:50:18;;;;;;;5.97;1.70;;;18.80;66.10;;;;;;4155713;28;20057;-48
2024/02/03 09:53:01;;;;;;;5.88;2.25;;;19.20;64.60;;;;;;4169697;28;20054;-50
2024/02/03 09:55:43;;;;;;;5.18;1.90;;;19.60;63.30;;;;;;4173007;28;20186;-47
2024/02/03 09:58:25;;;;;;;6.20;1.55;;;19.90;61.90;;;;;;4156913;28;20056;-48
2024/02/03 10:01:05;;;;;;;;;;;20.20;60.90;;;;;;4156604;28;20184;-47
2024/02/03 10:03:56;;;;;;;11.57;2.72;;;20.40;59.90;;;;;;4154773;28;19928;-48
2024/02/03 10:06:37;;;;;;;7.40;1.97;;;20.50;59.40;;;;;;4156124;28;20057;-49
2024/02/03 10:09:26;;;;;;;4.82;2.05;;;20.50;59.20;;;;;;4147448;28;20556;-51
2024/02/03 10:12:17;;;;;;;9.77;2.40;;;20.50;59.30;;;;;;4155738;28;20436;-49
2024/02/03 10:15:02;;;;;;;6.97;2.35;;;20.40;59.60;;;;;;4154961;28;20119;-49
2024/02/03 10:17:45;;;;;;;8.02;2.38;;;20.20;60.00;;;;;;4148441;28;20131;-50
2024/02/03 10:20:26;;;;;;;7.03;1.48;;;20.10;60.30;;;;;;4156327;28;20056;-52
2024/02/03 10:23:07;;;;;;;6.70;1.52;;;20.10;60.50;;;;;;4155801;28;20521;-52
2024/02/03 10:25:57;;;;;;;8.88;2.63;;;20.10;60.50;;;;;;4159209;28;20088;-48
2024/02/03 10:28:44;;;;;;;6.22;1.95;;;20.10;60.20;;;;;;4146871;28;20060;-47
2024/02/03 10:31:25;;;;;;;5.32;2.10;;;20.20;60.10;;;;;;4137634;28;20119;-48
2024/02/03 10:34:07;;;;;;;6.60;1.90;;;20.20;60.10;;;;;;4153105;28;20068;-49
2024/02/03 10:36:48;;;;;;;10.50;2.20;;;20.20;60.30;;;;;;4138167;28;20068;-47
2024/02/03 10:39:30;;;;;;;5.90;2.05;;;20.20;60.80;;;;;;4135004;28;20662;-48
2024/02/03 10:42:19;;;;;;;6.85;2.58;;;20.30;61.20;;;;;;4144561;28;20200;-51
2024/02/03 10:45:03;;;;;;;5.13;1.88;;;20.30;60.80;;;;;;4144895;28;20509;-49
2024/02/03 10:47:49;;;;;;;6.57;2.60;;;20.40;60.30;;;;;;4152979;28;20601;-48
2024/02/03 10:50:35;;;;;;;7.97;1.95;;;20.50;60.00;;;;;;4148437;28;20414;-48
2024/02/03 10:53:22;;;;;;;7.38;2.20;;;20.50;59.70;;;;;;4149439;28;20088;-49
2024/02/03 10:56:08;;;;;;;6.88;2.28;;;20.50;59.60;;;;;;4127160;28;20081;-49
2024/02/03 10:58:51;;;;;;;7.53;2.40;;;20.50;59.60;;;;;;4152779;28;20563;-48
2024/02/03 11:01:36;;;;;;;7.53;1.92;;;20.50;59.50;;;;;;4129149;28;20721;-51
2024/02/03 11:04:17;;;;;;;6.60;1.73;;;20.50;59.40;;;;;;4137443;28;20433;-48
2024/02/03 11:07:00;;;;;;;9.10;2.70;;;20.60;59.30;;;;;;4152268;28;20114;-49
2024/02/03 11:09:41;;;;;;;10.35;2.25;;;20.60;59.40;;;;;;4149376;28;20509;-51
2024/02/03 11:12:22;;;;;;;8.02;2.33;;;20.60;59.40;;;;;;4145192;28;20060;-50
2024/02/03 11:15:10;;;;;;;6.30;1.90;;;20.60;59.40;;;;;;4149910;28;20076;-50
2024/02/03 11:17:53;;;;;;;7.90;2.35;;;20.60;59.50;;;;;;4140101;28;20509;-52
2024/02/03 11:20:35;;;;;;;7.53;1.80;;;20.60;59.50;;;;;;4140455;28;20072;-49
2024/02/03 11:23:16;;;;;;;3.60;1.67;;;20.50;59.70;;;;;;4138678;28;20395;-50
2024/02/03 11:25:59;;;;;;;3.08;1.65;;;20.50;59.80;;;;;;4136990;28;20123;-49
2024/02/03 11:28:40;;;;;;;6.72;1.40;;;20.50;60.00;;;;;;4137000;28;20057;-53
2024/02/03 11:31:25;;;;;;;5.15;2.05;;;20.50;61.00;;;;;;4135797;28;20061;-52
2024/02/03 11:34:06;;;;;;;5.95;2.10;;;20.40;60.10;;;;;;4147357;28;20191;-53
2024/02/03 11:36:47;;;;;;;6.50;1.65;;;20.30;60.30;;;;;;4136546;28;20049;-50
2024/02/03 11:39:31;;;;;;;3.97;1.90;;;20.40;60.50;;;;;;4144305;28;20068;-48
2024/02/03 11:42:12;;;;;;;6.70;1.80;;;20.40;60.50;;;;;;4138362;28;20107;-49
2024/02/03 11:44:58;;;;;;;3.35;1.73;;;20.40;60.50;;;;;;4136605;28;20064;-52
2024/02/03 11:47:40;;;;;;;6.32;1.90;;;20.40;60.60;;;;;;4136023;28;20107;-51
2024/02/03 11:50:23;;;;;;;8.60;3.90;;;20.30;60.70;;;;;;4138184;28;20053;-51
2024/02/03 11:53:04;;;;;;;6.05;1.70;;;20.30;60.90;;;;;;4134888;28;20060;-51
2024/02/03 11:55:45;;;;;;;2.13;1.38;;;20.10;61.20;;;;;;4142524;28;20072;-50
2024/02/03 11:58:27;;;;;;;4.95;1.58;;;20.10;61.60;;;;;;4137415;28;20513;-50
2024/02/03 12:01:09;;;;;;;7.03;1.83;;;20.10;61.50;;;;;;4135748;28;20188;-51
2024/02/03 12:03:52;;;;;;;2.85;1.30;;;20.10;61.40;;;;;;4134290;28;20057;-48
2024/02/03 12:06:34;;;;;;;3.92;1.20;;;20.10;61.50;;;;;;4143402;28;20076;-48
2024/02/03 12:09:16;;;;;;;;;;;20.20;61.60;;;;;;4144507;28;20052;-41
2024/02/03 12:11:59;;;;;;;3.55;1.63;;;20.20;61.30;;;;;;4151573;28;19928;-39
2024/02/03 12:14:41;;;;;;;4.57;1.55;;;20.20;61.70;;;;;;4150264;28;20052;-38
2024/02/03 12:17:25;;;;;;;9.25;2.20;;;20.10;62.40;;;;;;4144975;28;20076;-40
2024/02/03 12:20:22;;;;;;;4.00;1.48;;;20.00;63.00;;;;;;4135960;28;20123;-39
2024/02/03 12:23:04;;;;;;;5.03;1.50;;;19.90;63.50;;;;;;4132335;28;20057;-40
2024/02/03 12:25:45;;;;;;;4.65;1.55;;;19.90;64.10;;;;;;4137331;28;20048;-39
2024/02/03 12:28:27;;;;;;;5.35;1.88;;;19.80;64.80;;;;;;4136569;28;20054;-39
2024/02/03 12:31:11;;;;;;;6.82;2.00;;;19.80;64.90;;;;;;4134561;28;20056;-39
2024/02/03 12:33:52;;;;;;;3.75;1.67;;;19.90;64.70;;;;;;4133671;28;20057;-40
2024/02/03 12:36:35;;;;;;;2.22;1.35;;;20.00;64.80;;;;;;4143055;28;20699;-42
2024/02/03 12:39:17;;;;;;;9.70;1.92;;;20.00;64.90;;;;;;4138822;28;20196;-40
2024/02/03 12:41:57;;;;;;;4.68;1.88;;;20.00;64.90;;;;;;4135110;28;20072;-41
2024/02/03 12:44:39;;;;;;;;;;;20.00;65.10;;;;;;4148918;28;20056;-40
2024/02/03 12:47:20;;;;;;;2.63;1.40;;;20.00;65.10;;;;;;4138439;28;20071;-39
2024/02/03 12:50:00;;;;;;;3.28;1.50;;;20.00;66.20;;;;;;4137877;28;20095;-41
2024/02/03 12:52:43;;;;;;;4.50;2.08;;;20.00;66.00;;;;;;4144008;28;20091;-41
2024/02/03 12:55:24;;;;;;;6.00;1.50;;;20.00;66.00;;;;;;4153786;28;20529;-41
2024/02/03 12:58:05;;;;;;;3.60;1.35;;;20.00;65.80;;;;;;4137460;28;20061;-42
2024/02/03 13:00:46;;;;;;;3.92;1.88;;;20.10;65.80;;;;;;4137898;28;20057;-44
2024/02/03 13:03:27;;;;;;;9.60;1.95;;;20.20;66.00;;;;;;4121300;28;20053;-45
2024/02/03 13:06:08;;;;;;;3.42;1.60;;;20.30;65.50;;;;;;4136180;28;20111;-46
2024/02/03 13:08:51;;;;;;;7.03;1.50;;;20.30;65.90;;;;;;4141108;28;20049;-43
2024/02/03 13:11:32;;;;;;;3.78;1.58;;;20.30;65.60;;;;;;4139214;28;20052;-42
2024/02/03 13:14:13;;;;;;;2.70;1.58;;;20.40;65.50;;;;;;4140761;28;20064;-45
2024/02/03 13:16:55;;;;;;;7.45;2.10;;;20.40;65.10;;;;;;4151891;28;20500;-41
2024/02/03 13:19:36;;;;;;;5.32;1.70;;;20.40;65.10;;;;;;4156414;28;20052;-43
2024/02/03 13:22:17;;;;;;;6.00;1.90;;;20.40;65.40;;;;;;4140349;28;20056;-40
2024/02/03 13:25:00;;;;;;;5.53;2.05;;;20.40;65.40;;;;;;4138789;28;20049;-40
2024/02/03 13:27:41;;;;;;;6.85;2.00;;;20.40;65.40;;;;;;4148435;28;20179;-44
2024/02/03 13:30:22;;;;;;;6.82;1.80;;;20.40;65.30;;;;;;4155353;28;20405;-44
2024/02/03 13:33:04;;;;;;;3.85;1.65;;;20.40;65.30;;;;;;4147905;28;20102;-44
2024/02/03 13:35:45;;;;;;;;;;;20.30;65.70;;;;;;4157259;28;20524;-45
2024/02/03 13:38:26;;;;;;;5.25;1.88;;;20.30;66.00;;;;;;4156711;28;19932;-44
2024/02/03 13:41:08;;;;;;;;;;;20.10;66.10;;;;;;4149621;28;20065;-44
2024/02/03 13:43:50;;;;;;;6.32;1.73;;;20.00;66.70;;;;;;4155382;28;20026;-43
2024/02/03 13:46:31;;;;;;;5.63;2.10;;;19.90;66.90;;;;;;4140742;28;20564;-45
2024/02/03 13:49:12;;;;;;;4.38;1.55;;;19.80;67.30;;;;;;4140281;28;20406;-43
2024/02/03 13:51:53;;;;;;;5.88;2.30;;;19.70;67.60;;;;;;4150754;28;20405;-45
2024/02/03 13:54:34;;;;;;;7.28;1.65;;;19.70;67.90;;;;;;4156714;28;20056;-45
2024/02/03 13:57:16;;;;;;;3.85;1.80;;;19.70;67.70;;;;;;4156344;28;20060;-44
2024/02/03 13:59:57;;;;;;;6.18;2.05;;;19.70;67.20;;;;;;4156969;28;20070;-43
2024/02/03 14:02:41;;;;;;;5.25;2.17;;;19.80;67.00;;;;;;4145712;28;20052;-45